sensor_id;sensor_type;location;lat;lon;timestamp;P1;durP1;ratioP1;P2;durP2;ratioP2
72856;SDS011;62742;52.136;4.500;2023-02-28T00:01:07;11.35;;;4.18;;
72856;SDS011;62742;52.136;4.500;2023-02-28T00:03:33;7.68;;;4.03;;
72856;SDS011;62742;52.136;4.500;2023-02-28T00:06:01;8.93;;;3.85;;
72856;SDS011;62742;52.136;4.500;2023-02-28T00:08:33;8.60;;;3.88;;
72856;SDS011;62742;52.136;4.500;2023-02-28T00:13:33;11.23;;;4.50;;
72856;SDS011;62742;52.136;4.500;2023-02-28T00:16:06;10.93;;;4.47;;
72856;SDS011;62742;52.136;4.500;2023-02-28T00:18:37;8.95;;;3.85;;
72856;SDS011;62742;52.136;4.500;2023-02-28T00:21:04;10.55;;;4.57;;
72856;SDS011;62742;52.136;4.500;2023-02-28T00:23:32;11.65;;;4.18;;
72856;SDS011;62742;52.136;4.500;2023-02-28T00:25:59;9.63;;;4.13;;
72856;SDS011;62742;52.136;4.500;2023-02-28T00:28:26;8.45;;;3.67;;
72856;SDS011;62742;52.136;4.500;2023-02-28T00:30:53;9.63;;;4.20;;
72856;SDS011;62742;52.136;4.500;2023-02-28T00:33:19;9.43;;;4.03;;
72856;SDS011;62742;52.136;4.500;2023-02-28T00:35:46;8.77;;;4.25;;
72856;SDS011;62742;52.136;4.500;2023-02-28T00:38:13;12.55;;;5.15;;
72856;SDS011;62742;52.136;4.500;2023-02-28T00:40:40;12.88;;;4.15;;
72856;SDS011;62742;52.136;4.500;2023-02-28T00:43:07;9.23;;;4.00;;
72856;SDS011;62742;52.136;4.500;2023-02-28T00:45:33;9.25;;;4.55;;
72856;SDS011;62742;52.136;4.500;2023-02-28T00:48:00;11.07;;;4.38;;
72856;SDS011;62742;52.136;4.500;2023-02-28T00:52:53;11.20;;;4.00;;
72856;SDS011;62742;52.136;4.500;2023-02-28T00:57:45;11.13;;;4.55;;
72856;SDS011;62742;52.136;4.500;2023-02-28T01:02:39;12.98;;;4.35;;
72856;SDS011;62742;52.136;4.500;2023-02-28T01:07:31;14.55;;;4.28;;
72856;SDS011;62742;52.136;4.500;2023-02-28T01:12:24;9.35;;;4.43;;
72856;SDS011;62742;52.136;4.500;2023-02-28T01:14:51;9.38;;;4.20;;
72856;SDS011;62742;52.136;4.500;2023-02-28T01:19:43;12.70;;;4.65;;
72856;SDS011;62742;52.136;4.500;2023-02-28T01:24:37;12.02;;;4.78;;
72856;SDS011;62742;52.136;4.500;2023-02-28T01:27:03;13.27;;;4.93;;
72856;SDS011;62742;52.136;4.500;2023-02-28T01:31:56;11.63;;;4.57;;
72856;SDS011;62742;52.136;4.500;2023-02-28T01:34:22;14.75;;;4.90;;
72856;SDS011;62742;52.136;4.500;2023-02-28T01:39:15;15.15;;;4.78;;
72856;SDS011;62742;52.136;4.500;2023-02-28T01:41:42;11.23;;;4.47;;
72856;SDS011;62742;52.136;4.500;2023-02-28T01:47:30;14.88;;;4.53;;
72856;SDS011;62742;52.136;4.500;2023-02-28T01:50:05;7.80;;;4.43;;
72856;SDS011;62742;52.136;4.500;2023-02-28T01:52:38;9.90;;;4.63;;
72856;SDS011;62742;52.136;4.500;2023-02-28T01:55:05;10.40;;;4.60;;
72856;SDS011;62742;52.136;4.500;2023-02-28T01:57:35;12.43;;;4.35;;
72856;SDS011;62742;52.136;4.500;2023-02-28T02:00:12;10.98;;;4.40;;
72856;SDS011;62742;52.136;4.500;2023-02-28T02:02:45;13.27;;;4.28;;
72856;SDS011;62742;52.136;4.500;2023-02-28T02:05:23;12.73;;;4.40;;
72856;SDS011;62742;52.136;4.500;2023-02-28T02:07:54;21.17;;;5.20;;
72856;SDS011;62742;52.136;4.500;2023-02-28T02:10:29;13.20;;;5.43;;
72856;SDS011;62742;52.136;4.500;2023-02-28T02:18:48;11.15;;;5.15;;
72856;SDS011;62742;52.136;4.500;2023-02-28T02:21:36;13.63;;;5.20;;
72856;SDS011;62742;52.136;4.500;2023-02-28T02:35:55;18.33;;;5.93;;
72856;SDS011;62742;52.136;4.500;2023-02-28T02:38:42;14.27;;;5.63;;
72856;SDS011;62742;52.136;4.500;2023-02-28T02:41:40;12.60;;;6.07;;
72856;SDS011;62742;52.136;4.500;2023-02-28T02:44:21;11.07;;;5.93;;
72856;SDS011;62742;52.136;4.500;2023-02-28T02:47:03;16.48;;;6.38;;
72856;SDS011;62742;52.136;4.500;2023-02-28T02:49:38;18.58;;;6.57;;
72856;SDS011;62742;52.136;4.500;2023-02-28T02:52:12;11.35;;;6.05;;
72856;SDS011;62742;52.136;4.500;2023-02-28T02:54:45;13.45;;;6.53;;
72856;SDS011;62742;52.136;4.500;2023-02-28T02:57:21;19.35;;;6.82;;
72856;SDS011;62742;52.136;4.500;2023-02-28T02:59:55;13.88;;;6.32;;
72856;SDS011;62742;52.136;4.500;2023-02-28T03:02:24;12.75;;;7.13;;
72856;SDS011;62742;52.136;4.500;2023-02-28T03:05:00;16.42;;;6.53;;
72856;SDS011;62742;52.136;4.500;2023-02-28T03:07:34;16.15;;;6.93;;
72856;SDS011;62742;52.136;4.500;2023-02-28T03:10:01;14.02;;;6.82;;
72856;SDS011;62742;52.136;4.500;2023-02-28T03:12:34;16.15;;;7.30;;
72856;SDS011;62742;52.136;4.500;2023-02-28T03:15:19;16.48;;;8.15;;
72856;SDS011;62742;52.136;4.500;2023-02-28T03:20:56;16.63;;;7.95;;
72856;SDS011;62742;52.136;4.500;2023-02-28T03:23:38;15.68;;;7.13;;
72856;SDS011;62742;52.136;4.500;2023-02-28T03:26:18;16.25;;;7.85;;
72856;SDS011;62742;52.136;4.500;2023-02-28T03:31:59;15.30;;;7.63;;
72856;SDS011;62742;52.136;4.500;2023-02-28T03:34:41;16.38;;;8.38;;
72856;SDS011;62742;52.136;4.500;2023-02-28T03:37:22;16.25;;;7.43;;
72856;SDS011;62742;52.136;4.500;2023-02-28T03:39:57;15.80;;;7.80;;
72856;SDS011;62742;52.136;4.500;2023-02-28T03:42:35;13.90;;;7.53;;
72856;SDS011;62742;52.136;4.500;2023-02-28T03:45:14;15.38;;;7.75;;
72856;SDS011;62742;52.136;4.500;2023-02-28T03:50:24;16.02;;;7.35;;
72856;SDS011;62742;52.136;4.500;2023-02-28T03:58:49;13.95;;;7.55;;
72856;SDS011;62742;52.136;4.500;2023-02-28T04:01:34;17.95;;;7.57;;
72856;SDS011;62742;52.136;4.500;2023-02-28T04:04:07;18.70;;;7.93;;
72856;SDS011;62742;52.136;4.500;2023-02-28T04:06:36;15.23;;;7.80;;
72856;SDS011;62742;52.136;4.500;2023-02-28T04:09:04;16.40;;;8.00;;
72856;SDS011;62742;52.136;4.500;2023-02-28T04:11:37;15.30;;;7.90;;
72856;SDS011;62742;52.136;4.500;2023-02-28T04:14:07;18.73;;;8.40;;
72856;SDS011;62742;52.136;4.500;2023-02-28T04:16:37;17.77;;;7.80;;
72856;SDS011;62742;52.136;4.500;2023-02-28T04:19:06;21.73;;;8.82;;
72856;SDS011;62742;52.136;4.500;2023-02-28T04:21:36;17.88;;;8.15;;
72856;SDS011;62742;52.136;4.500;2023-02-28T04:24:10;16.95;;;8.20;;
72856;SDS011;62742;52.136;4.500;2023-02-28T04:26:49;19.40;;;8.27;;
72856;SDS011;62742;52.136;4.500;2023-02-28T04:29:22;17.50;;;8.48;;
72856;SDS011;62742;52.136;4.500;2023-02-28T04:31:53;18.00;;;8.40;;
72856;SDS011;62742;52.136;4.500;2023-02-28T04:34:23;15.25;;;8.98;;
72856;SDS011;62742;52.136;4.500;2023-02-28T04:36:54;18.70;;;8.98;;
72856;SDS011;62742;52.136;4.500;2023-02-28T04:39:23;22.05;;;9.75;;
72856;SDS011;62742;52.136;4.500;2023-02-28T04:41:50;17.38;;;9.40;;
72856;SDS011;62742;52.136;4.500;2023-02-28T04:44:17;18.35;;;10.20;;
72856;SDS011;62742;52.136;4.500;2023-02-28T04:46:43;18.88;;;9.82;;
72856;SDS011;62742;52.136;4.500;2023-02-28T04:49:11;19.60;;;10.10;;
72856;SDS011;62742;52.136;4.500;2023-02-28T04:51:39;22.85;;;10.77;;
72856;SDS011;62742;52.136;4.500;2023-02-28T04:54:06;23.10;;;10.52;;
72856;SDS011;62742;52.136;4.500;2023-02-28T04:56:33;18.88;;;9.75;;
72856;SDS011;62742;52.136;4.500;2023-02-28T04:59:00;17.00;;;10.23;;
72856;SDS011;62742;52.136;4.500;2023-02-28T05:01:35;22.17;;;11.45;;
72856;SDS011;62742;52.136;4.500;2023-02-28T05:04:02;19.42;;;10.52;;
72856;SDS011;62742;52.136;4.500;2023-02-28T05:06:30;17.80;;;9.77;;
72856;SDS011;62742;52.136;4.500;2023-02-28T05:08:59;21.48;;;10.95;;
72856;SDS011;62742;52.136;4.500;2023-02-28T05:11:27;18.27;;;10.07;;
72856;SDS011;62742;52.136;4.500;2023-02-28T05:14:04;20.73;;;10.32;;
72856;SDS011;62742;52.136;4.500;2023-02-28T05:16:36;18.17;;;9.57;;
72856;SDS011;62742;52.136;4.500;2023-02-28T05:19:03;20.52;;;9.95;;
72856;SDS011;62742;52.136;4.500;2023-02-28T05:21:33;19.20;;;10.45;;
72856;SDS011;62742;52.136;4.500;2023-02-28T05:24:11;18.10;;;9.35;;
72856;SDS011;62742;52.136;4.500;2023-02-28T05:26:40;15.80;;;7.82;;
72856;SDS011;62742;52.136;4.500;2023-02-28T05:29:08;16.02;;;8.90;;
72856;SDS011;62742;52.136;4.500;2023-02-28T05:31:36;17.10;;;8.60;;
72856;SDS011;62742;52.136;4.500;2023-02-28T05:34:04;13.88;;;8.15;;
72856;SDS011;62742;52.136;4.500;2023-02-28T05:36:30;14.95;;;8.05;;
72856;SDS011;62742;52.136;4.500;2023-02-28T05:38:57;15.68;;;8.27;;
72856;SDS011;62742;52.136;4.500;2023-02-28T05:41:24;16.35;;;8.05;;
72856;SDS011;62742;52.136;4.500;2023-02-28T05:43:51;18.65;;;9.18;;
72856;SDS011;62742;52.136;4.500;2023-02-28T05:48:45;15.32;;;8.52;;
72856;SDS011;62742;52.136;4.500;2023-02-28T05:51:14;16.58;;;7.95;;
72856;SDS011;62742;52.136;4.500;2023-02-28T05:53:41;16.15;;;8.70;;
72856;SDS011;62742;52.136;4.500;2023-02-28T05:56:08;15.48;;;8.57;;
72856;SDS011;62742;52.136;4.500;2023-02-28T05:58:34;12.63;;;7.55;;
72856;SDS011;62742;52.136;4.500;2023-02-28T06:03:47;15.75;;;7.63;;
72856;SDS011;62742;52.136;4.500;2023-02-28T06:06:13;15.85;;;7.45;;
72856;SDS011;62742;52.136;4.500;2023-02-28T06:08:40;16.50;;;8.02;;
72856;SDS011;62742;52.136;4.500;2023-02-28T06:13:33;14.40;;;7.40;;
72856;SDS011;62742;52.136;4.500;2023-02-28T06:16:02;18.90;;;8.88;;
72856;SDS011;62742;52.136;4.500;2023-02-28T06:18:29;17.25;;;8.45;;
72856;SDS011;62742;52.136;4.500;2023-02-28T06:20:55;17.13;;;9.07;;
72856;SDS011;62742;52.136;4.500;2023-02-28T06:23:22;21.00;;;8.80;;
72856;SDS011;62742;52.136;4.500;2023-02-28T06:25:48;18.20;;;8.73;;
72856;SDS011;62742;52.136;4.500;2023-02-28T06:28:15;18.30;;;8.52;;
72856;SDS011;62742;52.136;4.500;2023-02-28T06:30:42;18.48;;;8.02;;
72856;SDS011;62742;52.136;4.500;2023-02-28T06:35:35;16.58;;;8.35;;
72856;SDS011;62742;52.136;4.500;2023-02-28T06:38:01;23.70;;;8.63;;
72856;SDS011;62742;52.136;4.500;2023-02-28T06:40:28;13.45;;;7.47;;
72856;SDS011;62742;52.136;4.500;2023-02-28T06:42:57;24.42;;;10.05;;
72856;SDS011;62742;52.136;4.500;2023-02-28T06:47:51;18.48;;;9.77;;
72856;SDS011;62742;52.136;4.500;2023-02-28T06:50:19;18.95;;;9.77;;
72856;SDS011;62742;52.136;4.500;2023-02-28T06:52:46;23.98;;;11.10;;
72856;SDS011;62742;52.136;4.500;2023-02-28T06:55:13;21.45;;;11.75;;
72856;SDS011;62742;52.136;4.500;2023-02-28T06:57:39;26.20;;;13.20;;
72856;SDS011;62742;52.136;4.500;2023-02-28T07:02:35;25.20;;;13.45;;
72856;SDS011;62742;52.136;4.500;2023-02-28T07:05:03;22.90;;;13.35;;
72856;SDS011;62742;52.136;4.500;2023-02-28T07:07:32;26.25;;;13.45;;
72856;SDS011;62742;52.136;4.500;2023-02-28T07:10:00;21.85;;;12.50;;
72856;SDS011;62742;52.136;4.500;2023-02-28T07:12:26;18.30;;;10.13;;
72856;SDS011;62742;52.136;4.500;2023-02-28T07:17:21;15.27;;;8.88;;
72856;SDS011;62742;52.136;4.500;2023-02-28T07:22:14;12.25;;;6.93;;
72856;SDS011;62742;52.136;4.500;2023-02-28T07:27:07;11.65;;;6.72;;
72856;SDS011;62742;52.136;4.500;2023-02-28T07:29:34;11.82;;;6.70;;
72856;SDS011;62742;52.136;4.500;2023-02-28T07:32:00;10.30;;;6.38;;
72856;SDS011;62742;52.136;4.500;2023-02-28T07:36:53;18.23;;;7.63;;
72856;SDS011;62742;52.136;4.500;2023-02-28T07:39:21;11.90;;;6.78;;
72856;SDS011;62742;52.136;4.500;2023-02-28T07:41:48;18.10;;;8.45;;
72856;SDS011;62742;52.136;4.500;2023-02-28T07:44:14;16.67;;;8.13;;
72856;SDS011;62742;52.136;4.500;2023-02-28T07:46:41;15.18;;;7.25;;
72856;SDS011;62742;52.136;4.500;2023-02-28T07:49:08;14.55;;;7.88;;
72856;SDS011;62742;52.136;4.500;2023-02-28T07:51:35;15.57;;;8.40;;
72856;SDS011;62742;52.136;4.500;2023-02-28T07:54:02;17.67;;;8.50;;
72856;SDS011;62742;52.136;4.500;2023-02-28T07:56:28;17.83;;;7.97;;
72856;SDS011;62742;52.136;4.500;2023-02-28T08:01:21;17.13;;;7.43;;
72856;SDS011;62742;52.136;4.500;2023-02-28T08:03:48;15.65;;;7.90;;
72856;SDS011;62742;52.136;4.500;2023-02-28T08:06:21;15.50;;;8.13;;
72856;SDS011;62742;52.136;4.500;2023-02-28T08:08:50;13.07;;;7.78;;
72856;SDS011;62742;52.136;4.500;2023-02-28T08:11:17;16.40;;;8.82;;
72856;SDS011;62742;52.136;4.500;2023-02-28T08:13:44;17.77;;;10.02;;
72856;SDS011;62742;52.136;4.500;2023-02-28T08:16:12;16.08;;;8.57;;
72856;SDS011;62742;52.136;4.500;2023-02-28T08:18:43;18.75;;;9.68;;
72856;SDS011;62742;52.136;4.500;2023-02-28T08:21:09;15.27;;;8.95;;
72856;SDS011;62742;52.136;4.500;2023-02-28T08:23:38;17.70;;;9.90;;
72856;SDS011;62742;52.136;4.500;2023-02-28T08:26:04;22.75;;;11.80;;
72856;SDS011;62742;52.136;4.500;2023-02-28T08:28:31;18.00;;;9.45;;
72856;SDS011;62742;52.136;4.500;2023-02-28T08:30:58;15.38;;;9.20;;
72856;SDS011;62742;52.136;4.500;2023-02-28T08:33:26;19.17;;;8.75;;
72856;SDS011;62742;52.136;4.500;2023-02-28T08:35:54;23.98;;;9.57;;
72856;SDS011;62742;52.136;4.500;2023-02-28T08:38:23;18.50;;;10.57;;
72856;SDS011;62742;52.136;4.500;2023-02-28T08:40:56;15.55;;;9.02;;
72856;SDS011;62742;52.136;4.500;2023-02-28T08:43:26;15.93;;;9.05;;
72856;SDS011;62742;52.136;4.500;2023-02-28T08:45:56;20.50;;;9.85;;
72856;SDS011;62742;52.136;4.500;2023-02-28T08:48:24;16.42;;;9.65;;
72856;SDS011;62742;52.136;4.500;2023-02-28T08:50:57;18.13;;;9.45;;
72856;SDS011;62742;52.136;4.500;2023-02-28T08:53:31;19.77;;;9.82;;
72856;SDS011;62742;52.136;4.500;2023-02-28T08:56:02;13.18;;;8.18;;
72856;SDS011;62742;52.136;4.500;2023-02-28T08:58:38;17.92;;;9.55;;
72856;SDS011;62742;52.136;4.500;2023-02-28T09:01:10;18.02;;;8.65;;
72856;SDS011;62742;52.136;4.500;2023-02-28T09:03:46;14.43;;;8.23;;
72856;SDS011;62742;52.136;4.500;2023-02-28T09:06:15;15.07;;;8.52;;
72856;SDS011;62742;52.136;4.500;2023-02-28T09:08:45;13.68;;;8.45;;
72856;SDS011;62742;52.136;4.500;2023-02-28T09:11:12;11.88;;;7.07;;
72856;SDS011;62742;52.136;4.500;2023-02-28T09:13:39;13.98;;;7.68;;
72856;SDS011;62742;52.136;4.500;2023-02-28T09:16:07;11.57;;;7.38;;
72856;SDS011;62742;52.136;4.500;2023-02-28T09:18:39;12.18;;;7.13;;
72856;SDS011;62742;52.136;4.500;2023-02-28T09:21:07;12.43;;;7.55;;
72856;SDS011;62742;52.136;4.500;2023-02-28T09:23:37;15.57;;;8.52;;
72856;SDS011;62742;52.136;4.500;2023-02-28T09:28:30;12.57;;;7.25;;
72856;SDS011;62742;52.136;4.500;2023-02-28T09:30:57;14.30;;;8.00;;
72856;SDS011;62742;52.136;4.500;2023-02-28T09:33:24;13.48;;;8.23;;
72856;SDS011;62742;52.136;4.500;2023-02-28T09:35:57;14.18;;;7.85;;
72856;SDS011;62742;52.136;4.500;2023-02-28T09:38:26;15.50;;;8.70;;
72856;SDS011;62742;52.136;4.500;2023-02-28T09:40:56;15.20;;;8.00;;
72856;SDS011;62742;52.136;4.500;2023-02-28T09:43:34;14.88;;;7.43;;
72856;SDS011;62742;52.136;4.500;2023-02-28T09:49:06;13.15;;;6.80;;
72856;SDS011;62742;52.136;4.500;2023-02-28T09:54:45;14.10;;;7.38;;
72856;SDS011;62742;52.136;4.500;2023-02-28T10:00:15;10.50;;;6.47;;
72856;SDS011;62742;52.136;4.500;2023-02-28T10:08:40;15.10;;;7.05;;
72856;SDS011;62742;52.136;4.500;2023-02-28T10:11:22;9.52;;;4.55;;
72856;SDS011;62742;52.136;4.500;2023-02-28T10:16:31;11.38;;;4.95;;
72856;SDS011;62742;52.136;4.500;2023-02-28T10:19:16;11.25;;;5.28;;
72856;SDS011;62742;52.136;4.500;2023-02-28T10:22:11;9.73;;;5.45;;
72856;SDS011;62742;52.136;4.500;2023-02-28T10:24:45;9.65;;;4.80;;
72856;SDS011;62742;52.136;4.500;2023-02-28T10:27:18;11.02;;;6.00;;
72856;SDS011;62742;52.136;4.500;2023-02-28T10:29:49;10.82;;;5.95;;
72856;SDS011;62742;52.136;4.500;2023-02-28T10:32:21;9.82;;;5.40;;
72856;SDS011;62742;52.136;4.500;2023-02-28T10:34:57;13.15;;;4.95;;
72856;SDS011;62742;52.136;4.500;2023-02-28T10:37:51;8.60;;;4.32;;
72856;SDS011;62742;52.136;4.500;2023-02-28T10:51:11;9.63;;;4.50;;
72856;SDS011;62742;52.136;4.500;2023-02-28T10:53:54;11.82;;;5.43;;
72856;SDS011;62742;52.136;4.500;2023-02-28T10:56:22;9.13;;;4.47;;
72856;SDS011;62742;52.136;4.500;2023-02-28T11:01:22;10.43;;;4.75;;
72856;SDS011;62742;52.136;4.500;2023-02-28T11:03:51;9.90;;;5.43;;
72856;SDS011;62742;52.136;4.500;2023-02-28T11:06:22;8.52;;;5.28;;
72856;SDS011;62742;52.136;4.500;2023-02-28T11:08:57;9.57;;;5.07;;
72856;SDS011;62742;52.136;4.500;2023-02-28T11:11:28;9.02;;;4.35;;
72856;SDS011;62742;52.136;4.500;2023-02-28T11:14:02;10.07;;;4.47;;
72856;SDS011;62742;52.136;4.500;2023-02-28T11:16:35;8.18;;;4.43;;
72856;SDS011;62742;52.136;4.500;2023-02-28T11:19:04;9.27;;;4.25;;
72856;SDS011;62742;52.136;4.500;2023-02-28T11:21:53;8.63;;;4.65;;
72856;SDS011;62742;52.136;4.500;2023-02-28T11:24:27;8.55;;;3.53;;
72856;SDS011;62742;52.136;4.500;2023-02-28T11:27:00;6.97;;;3.33;;
72856;SDS011;62742;52.136;4.500;2023-02-28T11:29:30;6.32;;;3.75;;
72856;SDS011;62742;52.136;4.500;2023-02-28T11:32:20;6.97;;;3.63;;
72856;SDS011;62742;52.136;4.500;2023-02-28T11:35:02;5.53;;;2.95;;
72856;SDS011;62742;52.136;4.500;2023-02-28T11:37:35;5.88;;;2.90;;
72856;SDS011;62742;52.136;4.500;2023-02-28T11:40:12;6.32;;;3.13;;
72856;SDS011;62742;52.136;4.500;2023-02-28T11:43:01;6.63;;;3.13;;
72856;SDS011;62742;52.136;4.500;2023-02-28T11:48:21;5.32;;;2.85;;
72856;SDS011;62742;52.136;4.500;2023-02-28T11:57:33;6.88;;;3.25;;
72856;SDS011;62742;52.136;4.500;2023-02-28T12:00:29;5.10;;;2.72;;
72856;SDS011;62742;52.136;4.500;2023-02-28T12:06:28;6.10;;;2.80;;
72856;SDS011;62742;52.136;4.500;2023-02-28T12:09:29;6.53;;;3.03;;
72856;SDS011;62742;52.136;4.500;2023-02-28T12:20:53;6.18;;;3.03;;
72856;SDS011;62742;52.136;4.500;2023-02-28T12:24:11;5.18;;;2.90;;
72856;SDS011;62742;52.136;4.500;2023-02-28T12:27:13;7.78;;;2.75;;
72856;SDS011;62742;52.136;4.500;2023-02-28T12:29:46;6.03;;;2.47;;
72856;SDS011;62742;52.136;4.500;2023-02-28T12:32:30;7.30;;;2.83;;
72856;SDS011;62742;52.136;4.500;2023-02-28T12:37:44;5.05;;;2.40;;
72856;SDS011;62742;52.136;4.500;2023-02-28T12:40:45;4.35;;;2.70;;
72856;SDS011;62742;52.136;4.500;2023-02-28T12:43:22;3.63;;;2.42;;
72856;SDS011;62742;52.136;4.500;2023-02-28T12:45:59;5.20;;;2.80;;
72856;SDS011;62742;52.136;4.500;2023-02-28T12:48:40;3.97;;;2.38;;
72856;SDS011;62742;52.136;4.500;2023-02-28T12:51:13;5.20;;;2.38;;
72856;SDS011;62742;52.136;4.500;2023-02-28T12:59:13;5.55;;;2.30;;
72856;SDS011;62742;52.136;4.500;2023-02-28T13:10:50;4.50;;;2.50;;
72856;SDS011;62742;52.136;4.500;2023-02-28T13:13:21;6.40;;;2.70;;
72856;SDS011;62742;52.136;4.500;2023-02-28T13:18:41;5.57;;;2.58;;
72856;SDS011;62742;52.136;4.500;2023-02-28T13:21:27;3.95;;;2.50;;
72856;SDS011;62742;52.136;4.500;2023-02-28T13:24:04;3.72;;;2.42;;
72856;SDS011;62742;52.136;4.500;2023-02-28T13:34:33;4.88;;;2.38;;
72856;SDS011;62742;52.136;4.500;2023-02-28T13:47:36;5.03;;;2.73;;
72856;SDS011;62742;52.136;4.500;2023-02-28T13:58:46;4.30;;;2.67;;
72856;SDS011;62742;52.136;4.500;2023-02-28T14:07:03;4.47;;;2.60;;
72856;SDS011;62742;52.136;4.500;2023-02-28T14:18:16;4.95;;;2.60;;
72856;SDS011;62742;52.136;4.500;2023-02-28T14:26:57;5.13;;;2.72;;
72856;SDS011;62742;52.136;4.500;2023-02-28T14:29:52;5.85;;;2.70;;
72856;SDS011;62742;52.136;4.500;2023-02-28T14:38:18;7.80;;;2.72;;
72856;SDS011;62742;52.136;4.500;2023-02-28T14:40:52;5.47;;;2.45;;
72856;SDS011;62742;52.136;4.500;2023-02-28T14:43:26;4.90;;;2.80;;
72856;SDS011;62742;52.136;4.500;2023-02-28T14:45:55;4.13;;;2.30;;
72856;SDS011;62742;52.136;4.500;2023-02-28T14:48:32;5.55;;;3.28;;
72856;SDS011;62742;52.136;4.500;2023-02-28T14:51:01;6.22;;;2.70;;
72856;SDS011;62742;52.136;4.500;2023-02-28T14:53:29;4.63;;;2.63;;
72856;SDS011;62742;52.136;4.500;2023-02-28T14:56:02;5.20;;;2.33;;
72856;SDS011;62742;52.136;4.500;2023-02-28T14:58:30;4.50;;;2.50;;
72856;SDS011;62742;52.136;4.500;2023-02-28T15:01:00;7.03;;;2.72;;
72856;SDS011;62742;52.136;4.500;2023-02-28T15:03:33;5.60;;;2.60;;
72856;SDS011;62742;52.136;4.500;2023-02-28T15:06:04;4.03;;;2.33;;
72856;SDS011;62742;52.136;4.500;2023-02-28T15:08:39;8.07;;;2.65;;
72856;SDS011;62742;52.136;4.500;2023-02-28T15:16:22;4.93;;;2.70;;
72856;SDS011;62742;52.136;4.500;2023-02-28T15:24:00;4.55;;;2.50;;
72856;SDS011;62742;52.136;4.500;2023-02-28T15:26:39;5.55;;;2.53;;
72856;SDS011;62742;52.136;4.500;2023-02-28T15:29:19;4.53;;;2.40;;
72856;SDS011;62742;52.136;4.500;2023-02-28T15:31:51;5.35;;;2.30;;
72856;SDS011;62742;52.136;4.500;2023-02-28T15:34:38;5.20;;;2.13;;
72856;SDS011;62742;52.136;4.500;2023-02-28T15:40:04;5.50;;;2.53;;
72856;SDS011;62742;52.136;4.500;2023-02-28T15:42:41;4.70;;;2.63;;
72856;SDS011;62742;52.136;4.500;2023-02-28T15:45:26;4.35;;;2.70;;
72856;SDS011;62742;52.136;4.500;2023-02-28T15:50:51;4.30;;;2.63;;
72856;SDS011;62742;52.136;4.500;2023-02-28T15:53:23;5.05;;;2.83;;
72856;SDS011;62742;52.136;4.500;2023-02-28T15:56:03;6.50;;;2.55;;
72856;SDS011;62742;52.136;4.500;2023-02-28T15:58:56;5.43;;;2.50;;
72856;SDS011;62742;52.136;4.500;2023-02-28T16:01:29;5.63;;;2.90;;
72856;SDS011;62742;52.136;4.500;2023-02-28T16:04:01;7.05;;;2.78;;
72856;SDS011;62742;52.136;4.500;2023-02-28T16:06:41;5.22;;;2.35;;
72856;SDS011;62742;52.136;4.500;2023-02-28T16:09:14;5.53;;;2.50;;
72856;SDS011;62742;52.136;4.500;2023-02-28T16:11:44;5.82;;;2.35;;
72856;SDS011;62742;52.136;4.500;2023-02-28T16:14:15;5.15;;;2.60;;
72856;SDS011;62742;52.136;4.500;2023-02-28T16:16:50;4.95;;;2.42;;
72856;SDS011;62742;52.136;4.500;2023-02-28T16:19:20;6.22;;;2.72;;
72856;SDS011;62742;52.136;4.500;2023-02-28T16:21:48;5.40;;;2.90;;
72856;SDS011;62742;52.136;4.500;2023-02-28T16:24:14;5.72;;;3.00;;
72856;SDS011;62742;52.136;4.500;2023-02-28T16:26:41;5.38;;;2.70;;
72856;SDS011;62742;52.136;4.500;2023-02-28T16:29:23;5.85;;;2.92;;
72856;SDS011;62742;52.136;4.500;2023-02-28T16:32:00;6.18;;;2.83;;
72856;SDS011;62742;52.136;4.500;2023-02-28T16:34:30;5.05;;;2.70;;
72856;SDS011;62742;52.136;4.500;2023-02-28T16:36:57;5.60;;;2.70;;
72856;SDS011;62742;52.136;4.500;2023-02-28T16:39:24;5.13;;;2.70;;
72856;SDS011;62742;52.136;4.500;2023-02-28T16:44:27;4.88;;;2.58;;
72856;SDS011;62742;52.136;4.500;2023-02-28T16:46:58;4.85;;;2.50;;
72856;SDS011;62742;52.136;4.500;2023-02-28T16:49:27;6.15;;;2.88;;
72856;SDS011;62742;52.136;4.500;2023-02-28T16:51:53;5.50;;;2.70;;
72856;SDS011;62742;52.136;4.500;2023-02-28T16:56:46;4.88;;;2.65;;
72856;SDS011;62742;52.136;4.500;2023-02-28T16:59:17;6.07;;;3.22;;
72856;SDS011;62742;52.136;4.500;2023-02-28T17:01:49;6.47;;;3.00;;
72856;SDS011;62742;52.136;4.500;2023-02-28T17:04:17;5.72;;;3.28;;
72856;SDS011;62742;52.136;4.500;2023-02-28T17:06:44;6.72;;;3.10;;
72856;SDS011;62742;52.136;4.500;2023-02-28T17:09:15;7.40;;;3.03;;
72856;SDS011;62742;52.136;4.500;2023-02-28T17:11:46;7.95;;;3.50;;
72856;SDS011;62742;52.136;4.500;2023-02-28T17:14:14;6.30;;;3.60;;
72856;SDS011;62742;52.136;4.500;2023-02-28T17:16:41;6.88;;;3.50;;
72856;SDS011;62742;52.136;4.500;2023-02-28T17:19:13;6.65;;;3.42;;
72856;SDS011;62742;52.136;4.500;2023-02-28T17:21:42;8.68;;;3.90;;
72856;SDS011;62742;52.136;4.500;2023-02-28T17:24:10;6.63;;;3.28;;
72856;SDS011;62742;52.136;4.500;2023-02-28T17:26:38;6.30;;;3.67;;
72856;SDS011;62742;52.136;4.500;2023-02-28T17:29:12;7.63;;;4.15;;
72856;SDS011;62742;52.136;4.500;2023-02-28T17:31:45;6.55;;;3.55;;
72856;SDS011;62742;52.136;4.500;2023-02-28T17:34:12;7.25;;;3.33;;
72856;SDS011;62742;52.136;4.500;2023-02-28T17:36:46;6.47;;;3.42;;
72856;SDS011;62742;52.136;4.500;2023-02-28T17:39:16;6.75;;;3.70;;
72856;SDS011;62742;52.136;4.500;2023-02-28T17:41:50;6.90;;;3.88;;
72856;SDS011;62742;52.136;4.500;2023-02-28T17:44:18;6.22;;;3.58;;
72856;SDS011;62742;52.136;4.500;2023-02-28T17:46:46;8.52;;;3.70;;
72856;SDS011;62742;52.136;4.500;2023-02-28T17:49:13;7.93;;;3.67;;
72856;SDS011;62742;52.136;4.500;2023-02-28T17:51:39;7.63;;;4.05;;
72856;SDS011;62742;52.136;4.500;2023-02-28T17:56:33;7.25;;;4.47;;
72856;SDS011;62742;52.136;4.500;2023-02-28T17:59:00;7.25;;;4.03;;
72856;SDS011;62742;52.136;4.500;2023-02-28T18:03:54;7.53;;;4.38;;
72856;SDS011;62742;52.136;4.500;2023-02-28T18:06:26;8.82;;;4.72;;
72856;SDS011;62742;52.136;4.500;2023-02-28T18:09:00;9.27;;;4.28;;
72856;SDS011;62742;52.136;4.500;2023-02-28T18:14:07;8.55;;;4.30;;
72856;SDS011;62742;52.136;4.500;2023-02-28T18:16:34;8.02;;;4.68;;
72856;SDS011;62742;52.136;4.500;2023-02-28T18:19:01;6.47;;;4.28;;
72856;SDS011;62742;52.136;4.500;2023-02-28T18:21:28;8.32;;;4.72;;
72856;SDS011;62742;52.136;4.500;2023-02-28T18:26:20;7.85;;;4.53;;
72856;SDS011;62742;52.136;4.500;2023-02-28T18:31:14;8.20;;;4.80;;
72856;SDS011;62742;52.136;4.500;2023-02-28T18:33:46;9.13;;;4.88;;
72856;SDS011;62742;52.136;4.500;2023-02-28T18:36:15;7.63;;;4.55;;
72856;SDS011;62742;52.136;4.500;2023-02-28T18:38:46;8.68;;;5.10;;
72856;SDS011;62742;52.136;4.500;2023-02-28T18:41:15;10.75;;;5.18;;
72856;SDS011;62742;52.136;4.500;2023-02-28T18:43:42;8.32;;;4.70;;
72856;SDS011;62742;52.136;4.500;2023-02-28T18:46:10;8.45;;;5.03;;
72856;SDS011;62742;52.136;4.500;2023-02-28T18:48:39;10.75;;;5.68;;
72856;SDS011;62742;52.136;4.500;2023-02-28T18:51:07;11.95;;;5.60;;
72856;SDS011;62742;52.136;4.500;2023-02-28T18:53:40;11.23;;;5.35;;
72856;SDS011;62742;52.136;4.500;2023-02-28T18:56:09;12.43;;;5.80;;
72856;SDS011;62742;52.136;4.500;2023-02-28T18:58:38;9.93;;;5.40;;
72856;SDS011;62742;52.136;4.500;2023-02-28T19:01:27;9.52;;;5.38;;
72856;SDS011;62742;52.136;4.500;2023-02-28T19:03:59;10.48;;;6.03;;
72856;SDS011;62742;52.136;4.500;2023-02-28T19:06:27;10.02;;;5.60;;
72856;SDS011;62742;52.136;4.500;2023-02-28T19:08:55;11.57;;;5.90;;
72856;SDS011;62742;52.136;4.500;2023-02-28T19:11:24;9.07;;;5.65;;
72856;SDS011;62742;52.136;4.500;2023-02-28T19:13:53;9.40;;;5.93;;